sensor_id;sensor_type;location;lat;lon;timestamp;P1;durP1;ratioP1;P2;durP2;ratioP2
14528;SDS011;7351;51.194;4.098;2023-05-27T00:02:04;8.47;;;5.60;;
14528;SDS011;7351;51.194;4.098;2023-05-27T00:04:31;9.00;;;5.70;;
14528;SDS011;7351;51.194;4.098;2023-05-27T00:06:58;8.47;;;5.63;;
14528;SDS011;7351;51.194;4.098;2023-05-27T00:09:25;6.87;;;5.33;;
14528;SDS011;7351;51.194;4.098;2023-05-27T00:11:53;8.23;;;5.23;;
14528;SDS011;7351;51.194;4.098;2023-05-27T00:14:20;6.40;;;4.60;;
14528;SDS011;7351;51.194;4.098;2023-05-27T00:16:47;8.03;;;5.20;;
14528;SDS011;7351;51.194;4.098;2023-05-27T00:19:16;6.40;;;4.90;;
14528;SDS011;7351;51.194;4.098;2023-05-27T00:21:43;9.53;;;5.60;;
14528;SDS011;7351;51.194;4.098;2023-05-27T00:24:10;9.30;;;6.00;;
14528;SDS011;7351;51.194;4.098;2023-05-27T00:26:37;9.23;;;5.60;;
14528;SDS011;7351;51.194;4.098;2023-05-27T00:29:06;6.77;;;5.80;;
14528;SDS011;7351;51.194;4.098;2023-05-27T00:31:32;7.30;;;4.43;;
14528;SDS011;7351;51.194;4.098;2023-05-27T00:33:59;6.03;;;4.80;;
14528;SDS011;7351;51.194;4.098;2023-05-27T00:36:26;10.13;;;5.40;;
14528;SDS011;7351;51.194;4.098;2023-05-27T00:38:53;10.27;;;5.70;;
14528;SDS011;7351;51.194;4.098;2023-05-27T00:41:20;8.03;;;5.90;;
14528;SDS011;7351;51.194;4.098;2023-05-27T00:43:48;6.47;;;5.00;;
14528;SDS011;7351;51.194;4.098;2023-05-27T00:46:16;8.27;;;5.23;;
14528;SDS011;7351;51.194;4.098;2023-05-27T00:48:45;7.23;;;5.67;;
14528;SDS011;7351;51.194;4.098;2023-05-27T00:51:13;8.23;;;4.83;;
14528;SDS011;7351;51.194;4.098;2023-05-27T00:53:42;9.43;;;5.20;;
14528;SDS011;7351;51.194;4.098;2023-05-27T00:56:10;7.73;;;5.67;;
14528;SDS011;7351;51.194;4.098;2023-05-27T00:58:40;8.30;;;5.90;;
14528;SDS011;7351;51.194;4.098;2023-05-27T01:01:09;10.27;;;5.73;;
14528;SDS011;7351;51.194;4.098;2023-05-27T01:03:38;5.17;;;4.57;;
14528;SDS011;7351;51.194;4.098;2023-05-27T01:06:08;9.70;;;5.47;;
14528;SDS011;7351;51.194;4.098;2023-05-27T01:08:44;7.40;;;5.00;;
14528;SDS011;7351;51.194;4.098;2023-05-27T01:11:19;8.87;;;4.63;;
14528;SDS011;7351;51.194;4.098;2023-05-27T01:13:55;6.40;;;4.87;;
14528;SDS011;7351;51.194;4.098;2023-05-27T01:16:25;6.37;;;4.53;;
14528;SDS011;7351;51.194;4.098;2023-05-27T01:18:55;6.57;;;5.03;;
14528;SDS011;7351;51.194;4.098;2023-05-27T01:21:28;7.77;;;4.77;;
14528;SDS011;7351;51.194;4.098;2023-05-27T01:24:03;6.77;;;4.10;;
14528;SDS011;7351;51.194;4.098;2023-05-27T01:26:30;9.00;;;5.07;;
14528;SDS011;7351;51.194;4.098;2023-05-27T01:28:57;6.80;;;4.87;;
14528;SDS011;7351;51.194;4.098;2023-05-27T01:31:26;6.67;;;4.50;;
14528;SDS011;7351;51.194;4.098;2023-05-27T01:33:58;7.53;;;4.77;;
14528;SDS011;7351;51.194;4.098;2023-05-27T01:36:28;7.97;;;4.47;;
14528;SDS011;7351;51.194;4.098;2023-05-27T01:38:59;8.37;;;5.33;;
14528;SDS011;7351;51.194;4.098;2023-05-27T01:41:29;5.80;;;4.70;;
14528;SDS011;7351;51.194;4.098;2023-05-27T01:43:57;7.83;;;4.83;;
14528;SDS011;7351;51.194;4.098;2023-05-27T01:46:25;8.03;;;5.17;;
14528;SDS011;7351;51.194;4.098;2023-05-27T01:48:52;7.33;;;4.93;;
14528;SDS011;7351;51.194;4.098;2023-05-27T01:51:19;8.83;;;5.67;;
14528;SDS011;7351;51.194;4.098;2023-05-27T01:53:46;10.60;;;5.27;;
14528;SDS011;7351;51.194;4.098;2023-05-27T01:56:13;7.30;;;5.00;;
14528;SDS011;7351;51.194;4.098;2023-05-27T01:58:41;8.60;;;5.13;;
14528;SDS011;7351;51.194;4.098;2023-05-27T02:01:08;7.13;;;4.67;;
14528;SDS011;7351;51.194;4.098;2023-05-27T02:03:35;6.40;;;5.17;;
14528;SDS011;7351;51.194;4.098;2023-05-27T02:06:02;9.33;;;5.80;;
14528;SDS011;7351;51.194;4.098;2023-05-27T02:08:29;10.30;;;5.70;;
14528;SDS011;7351;51.194;4.098;2023-05-27T02:10:56;8.53;;;5.27;;
14528;SDS011;7351;51.194;4.098;2023-05-27T02:13:23;8.83;;;5.23;;
14528;SDS011;7351;51.194;4.098;2023-05-27T02:15:51;7.20;;;4.87;;
14528;SDS011;7351;51.194;4.098;2023-05-27T02:18:18;4.90;;;4.13;;
14528;SDS011;7351;51.194;4.098;2023-05-27T02:20:46;7.03;;;5.20;;
14528;SDS011;7351;51.194;4.098;2023-05-27T02:23:13;6.90;;;4.83;;
14528;SDS011;7351;51.194;4.098;2023-05-27T02:25:40;6.47;;;5.27;;
14528;SDS011;7351;51.194;4.098;2023-05-27T02:28:07;7.87;;;5.23;;
14528;SDS011;7351;51.194;4.098;2023-05-27T02:30:34;8.20;;;5.33;;
14528;SDS011;7351;51.194;4.098;2023-05-27T02:33:02;9.47;;;5.17;;
14528;SDS011;7351;51.194;4.098;2023-05-27T02:35:29;8.57;;;5.53;;
14528;SDS011;7351;51.194;4.098;2023-05-27T02:37:56;10.07;;;5.07;;
14528;SDS011;7351;51.194;4.098;2023-05-27T02:40:23;9.23;;;6.03;;
14528;SDS011;7351;51.194;4.098;2023-05-27T02:42:51;7.63;;;5.63;;
14528;SDS011;7351;51.194;4.098;2023-05-27T02:45:18;8.43;;;5.37;;
14528;SDS011;7351;51.194;4.098;2023-05-27T02:47:45;7.77;;;4.27;;
14528;SDS011;7351;51.194;4.098;2023-05-27T02:50:13;7.90;;;5.63;;
14528;SDS011;7351;51.194;4.098;2023-05-27T02:52:40;6.43;;;4.87;;
14528;SDS011;7351;51.194;4.098;2023-05-27T02:55:07;7.43;;;4.57;;
14528;SDS011;7351;51.194;4.098;2023-05-27T02:57:35;6.57;;;5.10;;
14528;SDS011;7351;51.194;4.098;2023-05-27T03:00:02;6.90;;;4.47;;
14528;SDS011;7351;51.194;4.098;2023-05-27T03:02:29;5.10;;;4.60;;
14528;SDS011;7351;51.194;4.098;2023-05-27T03:04:56;6.27;;;4.87;;
14528;SDS011;7351;51.194;4.098;2023-05-27T03:07:26;6.23;;;4.77;;
14528;SDS011;7351;51.194;4.098;2023-05-27T03:09:55;9.10;;;5.80;;
14528;SDS011;7351;51.194;4.098;2023-05-27T03:12:22;8.30;;;5.60;;
14528;SDS011;7351;51.194;4.098;2023-05-27T03:14:49;7.77;;;5.07;;
14528;SDS011;7351;51.194;4.098;2023-05-27T03:17:17;9.00;;;5.40;;
14528;SDS011;7351;51.194;4.098;2023-05-27T03:19:45;7.10;;;4.80;;
14528;SDS011;7351;51.194;4.098;2023-05-27T03:22:12;7.73;;;5.40;;
14528;SDS011;7351;51.194;4.098;2023-05-27T03:24:40;8.50;;;5.33;;
14528;SDS011;7351;51.194;4.098;2023-05-27T03:27:07;6.60;;;5.23;;
14528;SDS011;7351;51.194;4.098;2023-05-27T03:29:34;6.80;;;5.13;;
14528;SDS011;7351;51.194;4.098;2023-05-27T03:32:01;7.00;;;5.40;;
14528;SDS011;7351;51.194;4.098;2023-05-27T03:34:28;6.67;;;4.90;;
14528;SDS011;7351;51.194;4.098;2023-05-27T03:36:55;6.20;;;5.60;;
14528;SDS011;7351;51.194;4.098;2023-05-27T03:39:22;7.93;;;5.30;;
14528;SDS011;7351;51.194;4.098;2023-05-27T03:41:51;6.73;;;5.00;;
14528;SDS011;7351;51.194;4.098;2023-05-27T03:44:17;7.17;;;5.17;;
14528;SDS011;7351;51.194;4.098;2023-05-27T03:46:45;6.27;;;4.90;;
14528;SDS011;7351;51.194;4.098;2023-05-27T03:49:12;9.00;;;4.83;;
14528;SDS011;7351;51.194;4.098;2023-05-27T03:51:39;10.57;;;6.20;;
14528;SDS011;7351;51.194;4.098;2023-05-27T03:54:06;7.53;;;4.90;;
14528;SDS011;7351;51.194;4.098;2023-05-27T03:56:33;8.40;;;5.87;;
14528;SDS011;7351;51.194;4.098;2023-05-27T03:59:01;8.87;;;5.67;;
14528;SDS011;7351;51.194;4.098;2023-05-27T04:01:28;10.27;;;5.57;;
14528;SDS011;7351;51.194;4.098;2023-05-27T04:03:55;10.70;;;5.63;;
14528;SDS011;7351;51.194;4.098;2023-05-27T04:06:22;11.67;;;4.80;;
14528;SDS011;7351;51.194;4.098;2023-05-27T04:08:50;7.30;;;5.30;;
14528;SDS011;7351;51.194;4.098;2023-05-27T04:11:16;9.23;;;5.30;;
14528;SDS011;7351;51.194;4.098;2023-05-27T04:13:43;8.93;;;4.83;;
14528;SDS011;7351;51.194;4.098;2023-05-27T04:16:13;8.63;;;6.07;;
14528;SDS011;7351;51.194;4.098;2023-05-27T04:18:40;7.07;;;4.63;;
14528;SDS011;7351;51.194;4.098;2023-05-27T04:21:07;9.83;;;5.80;;
14528;SDS011;7351;51.194;4.098;2023-05-27T04:23:34;8.60;;;4.77;;
14528;SDS011;7351;51.194;4.098;2023-05-27T04:26:01;8.30;;;5.47;;
14528;SDS011;7351;51.194;4.098;2023-05-27T04:28:30;8.37;;;5.60;;
14528;SDS011;7351;51.194;4.098;2023-05-27T04:30:57;8.30;;;5.90;;
14528;SDS011;7351;51.194;4.098;2023-05-27T04:33:25;9.43;;;5.80;;
14528;SDS011;7351;51.194;4.098;2023-05-27T04:35:52;10.23;;;5.47;;
14528;SDS011;7351;51.194;4.098;2023-05-27T04:38:21;8.97;;;4.93;;
14528;SDS011;7351;51.194;4.098;2023-05-27T04:40:48;8.70;;;5.40;;
14528;SDS011;7351;51.194;4.098;2023-05-27T04:43:17;12.30;;;5.73;;
14528;SDS011;7351;51.194;4.098;2023-05-27T04:45:44;7.87;;;4.67;;
14528;SDS011;7351;51.194;4.098;2023-05-27T04:48:12;14.00;;;5.93;;
14528;SDS011;7351;51.194;4.098;2023-05-27T04:50:40;9.87;;;4.60;;
14528;SDS011;7351;51.194;4.098;2023-05-27T04:53:07;7.27;;;5.00;;
14528;SDS011;7351;51.194;4.098;2023-05-27T04:55:34;8.23;;;5.33;;
14528;SDS011;7351;51.194;4.098;2023-05-27T04:58:02;12.00;;;5.27;;
14528;SDS011;7351;51.194;4.098;2023-05-27T05:00:29;6.30;;;5.13;;
14528;SDS011;7351;51.194;4.098;2023-05-27T05:03:04;10.10;;;5.30;;
14528;SDS011;7351;51.194;4.098;2023-05-27T05:05:32;8.80;;;4.87;;
14528;SDS011;7351;51.194;4.098;2023-05-27T05:08:00;7.37;;;4.87;;
14528;SDS011;7351;51.194;4.098;2023-05-27T05:10:28;8.33;;;5.03;;
14528;SDS011;7351;51.194;4.098;2023-05-27T05:12:55;7.53;;;5.40;;
14528;SDS011;7351;51.194;4.098;2023-05-27T05:15:22;9.87;;;5.00;;
14528;SDS011;7351;51.194;4.098;2023-05-27T05:17:49;11.83;;;5.37;;
14528;SDS011;7351;51.194;4.098;2023-05-27T05:20:16;7.70;;;5.30;;
14528;SDS011;7351;51.194;4.098;2023-05-27T05:22:43;11.53;;;5.50;;
14528;SDS011;7351;51.194;4.098;2023-05-27T05:25:12;9.93;;;5.77;;
14528;SDS011;7351;51.194;4.098;2023-05-27T05:27:39;9.97;;;5.07;;
14528;SDS011;7351;51.194;4.098;2023-05-27T05:30:07;13.43;;;5.90;;
14528;SDS011;7351;51.194;4.098;2023-05-27T05:32:35;12.53;;;6.23;;
14528;SDS011;7351;51.194;4.098;2023-05-27T05:35:02;7.90;;;6.43;;
14528;SDS011;7351;51.194;4.098;2023-05-27T05:37:29;13.10;;;6.87;;
14528;SDS011;7351;51.194;4.098;2023-05-27T05:39:56;11.70;;;7.57;;
14528;SDS011;7351;51.194;4.098;2023-05-27T05:42:24;10.87;;;6.60;;
14528;SDS011;7351;51.194;4.098;2023-05-27T05:44:51;12.10;;;7.67;;
14528;SDS011;7351;51.194;4.098;2023-05-27T05:47:18;16.73;;;8.20;;
14528;SDS011;7351;51.194;4.098;2023-05-27T05:49:45;10.83;;;6.57;;
14528;SDS011;7351;51.194;4.098;2023-05-27T05:52:12;11.13;;;6.70;;
14528;SDS011;7351;51.194;4.098;2023-05-27T05:54:39;14.30;;;7.60;;
14528;SDS011;7351;51.194;4.098;2023-05-27T05:57:06;15.37;;;8.13;;
14528;SDS011;7351;51.194;4.098;2023-05-27T05:59:34;13.63;;;7.90;;
14528;SDS011;7351;51.194;4.098;2023-05-27T06:02:01;14.13;;;7.97;;
14528;SDS011;7351;51.194;4.098;2023-05-27T06:04:28;20.77;;;8.17;;
14528;SDS011;7351;51.194;4.098;2023-05-27T06:06:55;26.67;;;8.60;;
14528;SDS011;7351;51.194;4.098;2023-05-27T06:09:22;19.90;;;9.20;;
14528;SDS011;7351;51.194;4.098;2023-05-27T06:11:50;17.37;;;7.87;;
14528;SDS011;7351;51.194;4.098;2023-05-27T06:14:17;22.33;;;9.70;;
14528;SDS011;7351;51.194;4.098;2023-05-27T06:16:46;19.23;;;9.97;;
14528;SDS011;7351;51.194;4.098;2023-05-27T06:19:13;17.33;;;8.70;;
14528;SDS011;7351;51.194;4.098;2023-05-27T06:21:39;19.33;;;8.47;;
14528;SDS011;7351;51.194;4.098;2023-05-27T06:24:07;21.60;;;9.37;;
14528;SDS011;7351;51.194;4.098;2023-05-27T06:26:33;21.80;;;9.07;;
14528;SDS011;7351;51.194;4.098;2023-05-27T06:29:00;15.73;;;8.17;;
14528;SDS011;7351;51.194;4.098;2023-05-27T06:31:27;15.40;;;7.27;;
14528;SDS011;7351;51.194;4.098;2023-05-27T06:33:56;17.40;;;8.10;;
14528;SDS011;7351;51.194;4.098;2023-05-27T06:36:23;14.00;;;8.23;;
14528;SDS011;7351;51.194;4.098;2023-05-27T06:38:50;17.87;;;8.23;;
14528;SDS011;7351;51.194;4.098;2023-05-27T06:41:17;9.87;;;6.57;;
14528;SDS011;7351;51.194;4.098;2023-05-27T06:43:44;14.47;;;7.70;;
14528;SDS011;7351;51.194;4.098;2023-05-27T06:46:11;10.97;;;7.20;;
14528;SDS011;7351;51.194;4.098;2023-05-27T06:48:39;14.13;;;6.80;;
14528;SDS011;7351;51.194;4.098;2023-05-27T06:51:07;14.57;;;7.70;;
14528;SDS011;7351;51.194;4.098;2023-05-27T06:53:34;14.77;;;8.70;;
14528;SDS011;7351;51.194;4.098;2023-05-27T06:56:01;14.03;;;7.67;;
14528;SDS011;7351;51.194;4.098;2023-05-27T06:58:28;13.13;;;7.13;;
14528;SDS011;7351;51.194;4.098;2023-05-27T07:00:55;14.00;;;8.87;;
14528;SDS011;7351;51.194;4.098;2023-05-27T07:03:22;15.70;;;8.27;;
14528;SDS011;7351;51.194;4.098;2023-05-27T07:05:49;12.43;;;8.00;;
14528;SDS011;7351;51.194;4.098;2023-05-27T07:08:18;19.43;;;8.47;;
14528;SDS011;7351;51.194;4.098;2023-05-27T07:10:45;13.90;;;7.80;;
14528;SDS011;7351;51.194;4.098;2023-05-27T07:13:12;15.70;;;7.13;;
14528;SDS011;7351;51.194;4.098;2023-05-27T07:15:40;14.67;;;8.07;;
14528;SDS011;7351;51.194;4.098;2023-05-27T07:18:08;11.63;;;7.33;;
14528;SDS011;7351;51.194;4.098;2023-05-27T07:20:34;14.10;;;7.97;;
14528;SDS011;7351;51.194;4.098;2023-05-27T07:23:01;13.37;;;6.57;;
14528;SDS011;7351;51.194;4.098;2023-05-27T07:25:30;12.23;;;6.90;;
14528;SDS011;7351;51.194;4.098;2023-05-27T07:27:57;16.80;;;7.70;;
14528;SDS011;7351;51.194;4.098;2023-05-27T07:30:24;12.13;;;7.40;;
14528;SDS011;7351;51.194;4.098;2023-05-27T07:32:51;14.30;;;7.97;;
14528;SDS011;7351;51.194;4.098;2023-05-27T07:35:19;10.53;;;7.27;;
14528;SDS011;7351;51.194;4.098;2023-05-27T07:37:46;14.87;;;7.13;;
14528;SDS011;7351;51.194;4.098;2023-05-27T07:40:13;10.87;;;6.37;;
14528;SDS011;7351;51.194;4.098;2023-05-27T07:42:41;11.00;;;6.77;;
14528;SDS011;7351;51.194;4.098;2023-05-27T07:45:08;13.20;;;7.00;;
14528;SDS011;7351;51.194;4.098;2023-05-27T07:47:36;11.10;;;7.73;;
14528;SDS011;7351;51.194;4.098;2023-05-27T07:50:03;11.60;;;6.63;;
14528;SDS011;7351;51.194;4.098;2023-05-27T07:52:31;10.00;;;6.90;;
14528;SDS011;7351;51.194;4.098;2023-05-27T07:54:58;11.60;;;6.67;;
14528;SDS011;7351;51.194;4.098;2023-05-27T07:57:25;11.13;;;5.83;;
14528;SDS011;7351;51.194;4.098;2023-05-27T07:59:53;10.27;;;6.03;;
14528;SDS011;7351;51.194;4.098;2023-05-27T08:02:20;10.17;;;5.83;;
14528;SDS011;7351;51.194;4.098;2023-05-27T08:04:47;15.97;;;7.10;;
14528;SDS011;7351;51.194;4.098;2023-05-27T08:07:15;9.90;;;5.93;;
14528;SDS011;7351;51.194;4.098;2023-05-27T08:09:41;11.77;;;6.40;;
14528;SDS011;7351;51.194;4.098;2023-05-27T08:12:08;9.27;;;5.83;;
14528;SDS011;7351;51.194;4.098;2023-05-27T08:14:35;9.77;;;6.93;;
14528;SDS011;7351;51.194;4.098;2023-05-27T08:17:06;11.07;;;6.80;;
14528;SDS011;7351;51.194;4.098;2023-05-27T08:19:33;8.37;;;5.70;;
14528;SDS011;7351;51.194;4.098;2023-05-27T08:22:00;7.57;;;6.23;;
14528;SDS011;7351;51.194;4.098;2023-05-27T08:24:28;9.40;;;5.67;;
14528;SDS011;7351;51.194;4.098;2023-05-27T08:26:57;7.93;;;6.17;;
14528;SDS011;7351;51.194;4.098;2023-05-27T08:29:24;11.57;;;7.27;;
14528;SDS011;7351;51.194;4.098;2023-05-27T08:31:52;8.67;;;5.93;;
14528;SDS011;7351;51.194;4.098;2023-05-27T08:34:21;8.77;;;5.53;;
14528;SDS011;7351;51.194;4.098;2023-05-27T08:36:48;8.43;;;5.50;;
14528;SDS011;7351;51.194;4.098;2023-05-27T08:39:15;8.60;;;5.40;;
14528;SDS011;7351;51.194;4.098;2023-05-27T08:41:42;9.97;;;7.10;;
14528;SDS011;7351;51.194;4.098;2023-05-27T08:44:10;8.27;;;5.40;;
14528;SDS011;7351;51.194;4.098;2023-05-27T08:46:37;6.93;;;5.27;;
14528;SDS011;7351;51.194;4.098;2023-05-27T08:49:05;8.17;;;5.67;;
14528;SDS011;7351;51.194;4.098;2023-05-27T08:51:34;8.53;;;5.77;;
14528;SDS011;7351;51.194;4.098;2023-05-27T08:54:04;9.50;;;5.37;;
14528;SDS011;7351;51.194;4.098;2023-05-27T08:56:32;7.10;;;5.87;;
14528;SDS011;7351;51.194;4.098;2023-05-27T08:59:01;6.63;;;5.23;;
14528;SDS011;7351;51.194;4.098;2023-05-27T09:01:28;9.07;;;6.83;;
14528;SDS011;7351;51.194;4.098;2023-05-27T09:03:56;8.23;;;5.83;;
14528;SDS011;7351;51.194;4.098;2023-05-27T09:06:23;7.23;;;5.50;;
14528;SDS011;7351;51.194;4.098;2023-05-27T09:08:52;9.17;;;5.67;;
14528;SDS011;7351;51.194;4.098;2023-05-27T09:11:20;5.97;;;5.27;;
14528;SDS011;7351;51.194;4.098;2023-05-27T09:13:53;6.60;;;4.90;;
14528;SDS011;7351;51.194;4.098;2023-05-27T09:16:21;7.43;;;5.17;;
14528;SDS011;7351;51.194;4.098;2023-05-27T09:18:49;7.60;;;5.20;;
14528;SDS011;7351;51.194;4.098;2023-05-27T09:21:16;10.73;;;6.40;;
14528;SDS011;7351;51.194;4.098;2023-05-27T09:23:43;7.33;;;5.57;;
14528;SDS011;7351;51.194;4.098;2023-05-27T09:26:12;7.97;;;5.60;;
14528;SDS011;7351;51.194;4.098;2023-05-27T09:28:39;9.63;;;5.63;;
14528;SDS011;7351;51.194;4.098;2023-05-27T09:31:07;6.27;;;4.77;;
14528;SDS011;7351;51.194;4.098;2023-05-27T09:33:35;6.93;;;5.03;;
14528;SDS011;7351;51.194;4.098;2023-05-27T09:36:04;5.87;;;5.27;;
14528;SDS011;7351;51.194;4.098;2023-05-27T09:38:34;7.70;;;5.10;;
14528;SDS011;7351;51.194;4.098;2023-05-27T09:41:02;7.73;;;5.47;;
14528;SDS011;7351;51.194;4.098;2023-05-27T09:43:31;6.17;;;5.43;;
14528;SDS011;7351;51.194;4.098;2023-05-27T09:45:58;7.43;;;6.03;;
14528;SDS011;7351;51.194;4.098;2023-05-27T09:48:27;6.77;;;5.53;;
14528;SDS011;7351;51.194;4.098;2023-05-27T09:50:56;6.90;;;5.70;;
14528;SDS011;7351;51.194;4.098;2023-05-27T09:53:25;7.93;;;5.33;;
14528;SDS011;7351;51.194;4.098;2023-05-27T09:55:52;7.10;;;5.80;;
14528;SDS011;7351;51.194;4.098;2023-05-27T09:58:19;6.20;;;5.03;;
14528;SDS011;7351;51.194;4.098;2023-05-27T10:00:48;7.83;;;5.63;;
14528;SDS011;7351;51.194;4.098;2023-05-27T10:03:16;6.80;;;5.37;;
14528;SDS011;7351;51.194;4.098;2023-05-27T10:05:43;8.60;;;5.33;;
14528;SDS011;7351;51.194;4.098;2023-05-27T10:08:11;8.70;;;5.67;;
14528;SDS011;7351;51.194;4.098;2023-05-27T10:10:38;6.47;;;5.83;;
14528;SDS011;7351;51.194;4.098;2023-05-27T10:13:05;7.13;;;5.50;;
14528;SDS011;7351;51.194;4.098;2023-05-27T10:15:33;10.40;;;5.57;;
14528;SDS011;7351;51.194;4.098;2023-05-27T10:18:03;7.77;;;5.37;;
14528;SDS011;7351;51.194;4.098;2023-05-27T10:20:35;8.90;;;5.83;;
14528;SDS011;7351;51.194;4.098;2023-05-27T10:23:10;7.90;;;5.60;;
14528;SDS011;7351;51.194;4.098;2023-05-27T10:25:38;9.43;;;6.50;;
14528;SDS011;7351;51.194;4.098;2023-05-27T10:28:05;10.90;;;6.33;;
14528;SDS011;7351;51.194;4.098;2023-05-27T10:30:42;12.30;;;6.93;;
14528;SDS011;7351;51.194;4.098;2023-05-27T10:33:12;13.90;;;7.73;;
14528;SDS011;7351;51.194;4.098;2023-05-27T10:35:39;10.30;;;6.50;;
14528;SDS011;7351;51.194;4.098;2023-05-27T10:38:14;9.73;;;5.80;;
14528;SDS011;7351;51.194;4.098;2023-05-27T10:40:41;9.23;;;6.00;;
14528;SDS011;7351;51.194;4.098;2023-05-27T10:43:14;12.30;;;7.13;;
14528;SDS011;7351;51.194;4.098;2023-05-27T10:45:42;11.13;;;6.43;;
14528;SDS011;7351;51.194;4.098;2023-05-27T10:48:18;9.90;;;5.63;;
14528;SDS011;7351;51.194;4.098;2023-05-27T10:50:49;13.10;;;6.77;;
14528;SDS011;7351;51.194;4.098;2023-05-27T10:53:18;10.00;;;6.63;;
14528;SDS011;7351;51.194;4.098;2023-05-27T10:55:47;11.43;;;7.00;;
14528;SDS011;7351;51.194;4.098;2023-05-27T10:58:15;10.43;;;6.47;;
14528;SDS011;7351;51.194;4.098;2023-05-27T11:00:43;11.23;;;5.40;;
14528;SDS011;7351;51.194;4.098;2023-05-27T11:03:19;12.07;;;7.30;;
14528;SDS011;7351;51.194;4.098;2023-05-27T11:05:48;8.70;;;6.47;;
14528;SDS011;7351;51.194;4.098;2023-05-27T11:08:24;10.20;;;6.47;;
14528;SDS011;7351;51.194;4.098;2023-05-27T11:10:51;14.80;;;7.77;;
14528;SDS011;7351;51.194;4.098;2023-05-27T11:13:29;12.37;;;6.47;;
14528;SDS011;7351;51.194;4.098;2023-05-27T11:15:56;11.83;;;7.37;;
14528;SDS011;7351;51.194;4.098;2023-05-27T11:18:32;12.93;;;7.87;;
14528;SDS011;7351;51.194;4.098;2023-05-27T11:21:01;10.87;;;6.20;;
14528;SDS011;7351;51.194;4.098;2023-05-27T11:23:36;11.10;;;6.70;;
14528;SDS011;7351;51.194;4.098;2023-05-27T11:26:12;10.83;;;6.80;;
14528;SDS011;7351;51.194;4.098;2023-05-27T11:28:46;8.47;;;6.70;;
14528;SDS011;7351;51.194;4.098;2023-05-27T11:31:14;12.67;;;7.13;;
14528;SDS011;7351;51.194;4.098;2023-05-27T11:33:43;10.67;;;7.57;;
14528;SDS011;7351;51.194;4.098;2023-05-27T11:36:11;12.27;;;7.83;;
14528;SDS011;7351;51.194;4.098;2023-05-27T11:38:49;14.83;;;7.93;;
14528;SDS011;7351;51.194;4.098;2023-05-27T11:41:20;9.00;;;6.23;;
14528;SDS011;7351;51.194;4.098;2023-05-27T11:43:50;12.90;;;7.40;;
14528;SDS011;7351;51.194;4.098;2023-05-27T11:46:19;9.73;;;7.23;;
14528;SDS011;7351;51.194;4.098;2023-05-27T11:48:48;13.10;;;7.73;;
14528;SDS011;7351;51.194;4.098;2023-05-27T11:51:16;11.97;;;7.40;;
14528;SDS011;7351;51.194;4.098;2023-05-27T11:53:44;11.13;;;7.30;;
14528;SDS011;7351;51.194;4.098;2023-05-27T11:56:12;12.73;;;7.13;;
14528;SDS011;7351;51.194;4.098;2023-05-27T11:58:39;10.97;;;6.13;;
14528;SDS011;7351;51.194;4.098;2023-05-27T12:01:07;13.63;;;6.73;;
14528;SDS011;7351;51.194;4.098;2023-05-27T12:03:34;11.20;;;7.40;;
14528;SDS011;7351;51.194;4.098;2023-05-27T12:06:03;11.40;;;6.50;;
14528;SDS011;7351;51.194;4.098;2023-05-27T12:08:30;11.57;;;6.30;;
14528;SDS011;7351;51.194;4.098;2023-05-27T12:10:58;11.83;;;6.43;;
14528;SDS011;7351;51.194;4.098;2023-05-27T12:13:27;9.77;;;6.17;;
14528;SDS011;7351;51.194;4.098;2023-05-27T12:15:57;10.87;;;6.87;;
14528;SDS011;7351;51.194;4.098;2023-05-27T12:18:25;10.87;;;6.47;;
14528;SDS011;7351;51.194;4.098;2023-05-27T12:20:52;11.37;;;7.40;;
14528;SDS011;7351;51.194;4.098;2023-05-27T12:23:21;8.30;;;5.80;;
14528;SDS011;7351;51.194;4.098;2023-05-27T12:25:48;11.67;;;6.67;;
14528;SDS011;7351;51.194;4.098;2023-05-27T12:28:15;9.40;;;6.47;;
14528;SDS011;7351;51.194;4.098;2023-05-27T12:30:43;12.43;;;6.03;;
14528;SDS011;7351;51.194;4.098;2023-05-27T12:33:11;13.33;;;6.50;;
14528;SDS011;7351;51.194;4.098;2023-05-27T12:35:38;10.40;;;6.47;;
14528;SDS011;7351;51.194;4.098;2023-05-27T12:38:06;9.43;;;6.57;;
14528;SDS011;7351;51.194;4.098;2023-05-27T12:40:35;9.17;;;5.97;;
14528;SDS011;7351;51.194;4.098;2023-05-27T12:43:02;10.97;;;6.43;;
14528;SDS011;7351;51.194;4.098;2023-05-27T12:45:30;11.27;;;6.33;;
14528;SDS011;7351;51.194;4.098;2023-05-27T12:47:57;8.90;;;5.97;;
14528;SDS011;7351;51.194;4.098;2023-05-27T12:50:24;14.87;;;7.50;;
14528;SDS011;7351;51.194;4.098;2023-05-27T12:52:51;11.67;;;6.57;;
14528;SDS011;7351;51.194;4.098;2023-05-27T12:55:19;11.60;;;6.97;;
14528;SDS011;7351;51.194;4.098;2023-05-27T12:57:49;7.87;;;6.97;;
14528;SDS011;7351;51.194;4.098;2023-05-27T13:00:18;14.17;;;7.63;;
14528;SDS011;7351;51.194;4.098;2023-05-27T13:02:46;10.93;;;7.10;;
14528;SDS011;7351;51.194;4.098;2023-05-27T13:05:14;11.13;;;6.37;;
14528;SDS011;7351;51.194;4.098;2023-05-27T13:07:52;9.60;;;7.13;;
14528;SDS011;7351;51.194;4.098;2023-05-27T13:10:20;14.30;;;9.60;;
14528;SDS011;7351;51.194;4.098;2023-05-27T13:12:49;12.77;;;6.27;;
14528;SDS011;7351;51.194;4.098;2023-05-27T13:15:16;11.60;;;7.00;;
14528;SDS011;7351;51.194;4.098;2023-05-27T13:17:43;14.30;;;7.13;;
14528;SDS011;7351;51.194;4.098;2023-05-27T13:20:10;11.97;;;6.30;;
14528;SDS011;7351;51.194;4.098;2023-05-27T13:22:38;10.60;;;6.73;;
14528;SDS011;7351;51.194;4.098;2023-05-27T13:25:06;10.20;;;6.50;;
14528;SDS011;7351;51.194;4.098;2023-05-27T13:27:34;13.00;;;7.13;;
14528;SDS011;7351;51.194;4.098;2023-05-27T13:30:02;12.88;;;6.72;;
14528;SDS011;7351;51.194;4.098;2023-05-27T13:32:30;12.33;;;6.13;;
14528;SDS011;7351;51.194;4.098;2023-05-27T13:34:57;16.60;;;6.68;;
14528;SDS011;7351;51.194;4.098;2023-05-27T13:37:24;8.30;;;6.03;;
14528;SDS011;7351;51.194;4.098;2023-05-27T13:39:51;11.97;;;7.00;;
14528;SDS011;7351;51.194;4.098;2023-05-27T13:42:18;21.20;;;7.83;;
14528;SDS011;7351;51.194;4.098;2023-05-27T13:44:44;15.73;;;6.57;;
14528;SDS011;7351;51.194;4.098;2023-05-27T13:47:13;21.83;;;7.65;;
14528;SDS011;7351;51.194;4.098;2023-05-27T13:49:40;20.40;;;6.95;;
14528;SDS011;7351;51.194;4.098;2023-05-27T13:52:07;17.57;;;8.17;;
14528;SDS011;7351;51.194;4.098;2023-05-27T13:54:34;18.58;;;6.72;;
14528;SDS011;7351;51.194;4.098;2023-05-27T13:57:01;22.33;;;8.52;;
14528;SDS011;7351;51.194;4.098;2023-05-27T13:59:28;16.88;;;7.63;;
14528;SDS011;7351;51.194;4.098;2023-05-27T14:01:55;20.57;;;8.33;;
14528;SDS011;7351;51.194;4.098;2023-05-27T14:04:23;15.52;;;7.07;;
14528;SDS011;7351;51.194;4.098;2023-05-27T14:06:50;15.20;;;6.72;;
14528;SDS011;7351;51.194;4.098;2023-05-27T14:09:17;10.43;;;6.28;;
14528;SDS011;7351;51.194;4.098;2023-05-27T14:11:44;11.27;;;6.78;;
14528;SDS011;7351;51.194;4.098;2023-05-27T14:14:11;15.73;;;7.43;;
14528;SDS011;7351;51.194;4.098;2023-05-27T14:16:38;13.85;;;5.95;;
14528;SDS011;7351;51.194;4.098;2023-05-27T14:19:05;15.75;;;6.55;;
14528;SDS011;7351;51.194;4.098;2023-05-27T14:21:33;11.57;;;6.25;;
14528;SDS011;7351;51.194;4.098;2023-05-27T14:24:00;15.35;;;5.80;;
14528;SDS011;7351;51.194;4.098;2023-05-27T14:26:28;12.57;;;6.25;;
14528;SDS011;7351;51.194;4.098;2023-05-27T14:28:55;12.32;;;6.47;;
14528;SDS011;7351;51.194;4.098;2023-05-27T14:31:23;13.82;;;5.95;;
14528;SDS011;7351;51.194;4.098;2023-05-27T14:33:50;15.57;;;6.18;;
14528;SDS011;7351;51.194;4.098;2023-05-27T14:36:17;11.07;;;6.60;;
14528;SDS011;7351;51.194;4.098;2023-05-27T14:38:46;13.50;;;4.95;;
14528;SDS011;7351;51.194;4.098;2023-05-27T14:41:13;11.73;;;6.35;;
14528;SDS011;7351;51.194;4.098;2023-05-27T14:43:40;6.70;;;5.32;;
14528;SDS011;7351;51.194;4.098;2023-05-27T14:46:07;13.48;;;5.90;;
14528;SDS011;7351;51.194;4.098;2023-05-27T14:48:34;10.07;;;6.85;;
14528;SDS011;7351;51.194;4.098;2023-05-27T14:51:01;14.00;;;6.18;;
14528;SDS011;7351;51.194;4.098;2023-05-27T14:53:28;8.85;;;6.07;;
14528;SDS011;7351;51.194;4.098;2023-05-27T14:55:57;10.52;;;6.50;;
14528;SDS011;7351;51.194;4.098;2023-05-27T14:58:24;9.30;;;6.13;;
14528;SDS011;7351;51.194;4.098;2023-05-27T15:00:50;10.00;;;5.50;;